createdAt,value
2018-12-08T00:01:01.555Z,0
2018-12-08T00:02:11.744Z,0
2018-12-08T00:03:21.690Z,0
2018-12-08T00:04:31.641Z,0
2018-12-08T00:05:41.618Z,0
2018-12-08T00:06:51.307Z,0
2018-12-08T00:08:01.272Z,0
2018-12-08T00:09:10.967Z,0
2018-12-08T00:10:20.672Z,0
2018-12-08T00:11:30.609Z,0
2018-12-08T00:12:40.600Z,0
2018-12-08T00:13:50.543Z,0
2018-12-08T00:15:00.257Z,0
2018-12-08T00:16:10.195Z,0
2018-12-08T00:17:20.142Z,0
2018-12-08T00:18:29.828Z,0
2018-12-08T00:19:39.518Z,0
2018-12-08T00:20:49.212Z,0
2018-12-08T00:21:59.172Z,0
2018-12-08T00:23:08.876Z,0
2018-12-08T00:24:18.573Z,0
2018-12-08T00:25:28.522Z,0
2018-12-08T00:26:38.458Z,0
2018-12-08T00:27:48.155Z,0
2018-12-08T00:28:57.851Z,0
2018-12-08T00:30:07.297Z,0
2018-12-08T00:31:17.238Z,0
2018-12-08T00:32:27.180Z,0
2018-12-08T00:33:37.127Z,0
2018-12-08T00:34:46.561Z,0
2018-12-08T00:35:56.512Z,0
2018-12-08T00:37:06.458Z,0
2018-12-08T00:38:16.388Z,0
2018-12-08T00:39:26.324Z,0
2018-12-08T00:40:36.021Z,0
2018-12-08T00:41:46.017Z,0
2018-12-08T00:42:55.959Z,0
2018-12-08T00:44:05.899Z,0
2018-12-08T00:45:15.602Z,0
2018-12-08T00:46:25.538Z,0
2018-12-08T00:47:35.482Z,0
2018-12-08T00:48:45.168Z,0
2018-12-08T00:49:55.106Z,0
2018-12-08T00:51:04.808Z,0
2018-12-08T00:52:14.353Z,0
2018-12-08T00:53:24.036Z,0
2018-12-08T00:54:33.731Z,0
2018-12-08T00:55:43.668Z,0
2018-12-08T00:56:53.614Z,0
2018-12-08T00:58:03.678Z,0
2018-12-08T00:59:13.408Z,0
2018-12-08T01:00:23.461Z,0
2018-12-08T01:01:33.160Z,0
2018-12-08T01:02:43.098Z,0
2018-12-08T01:03:52.804Z,0
2018-12-08T01:05:02.754Z,0
2018-12-08T01:06:12.687Z,0
2018-12-08T01:07:22.626Z,0
2018-12-08T01:08:32.578Z,0
2018-12-08T01:09:42.362Z,0
2018-12-08T01:10:52.407Z,0
2018-12-08T01:12:02.372Z,0
2018-12-08T01:13:12.312Z,0
2018-12-08T01:14:22.253Z,0
2018-12-08T01:15:32.190Z,0
2018-12-08T01:16:42.122Z,0
2018-12-08T01:17:52.077Z,0
2018-12-08T01:19:01.774Z,0
2018-12-08T01:20:11.723Z,0
2018-12-08T01:21:21.164Z,0
2018-12-08T01:22:31.105Z,0
2018-12-08T01:23:41.042Z,0
2018-12-08T01:24:51.209Z,0
2018-12-08T01:26:00.920Z,0
2018-12-08T01:27:10.608Z,0
2018-12-08T01:28:20.584Z,0
2018-12-08T01:29:30.534Z,0
2018-12-08T01:30:40.572Z,0
2018-12-08T01:31:50.517Z,0
2018-12-08T01:33:01.516Z,0
2018-12-08T01:34:11.456Z,0
2018-12-08T01:35:21.164Z,0
2018-12-08T01:36:30.855Z,0
2018-12-08T01:37:40.803Z,0
2018-12-08T01:38:50.760Z,0
2018-12-08T01:40:00.688Z,0
2018-12-08T01:41:10.402Z,0
2018-12-08T01:42:20.347Z,0
2018-12-08T01:43:30.119Z,0
2018-12-08T01:44:39.810Z,0
2018-12-08T01:45:49.482Z,0
2018-12-08T01:46:59.429Z,0
2018-12-08T01:48:09.408Z,0
2018-12-08T01:49:19.090Z,0
2018-12-08T01:50:29.025Z,0
2018-12-08T01:51:39.055Z,0
2018-12-08T01:52:48.987Z,0
2018-12-08T01:53:58.684Z,0
2018-12-08T01:55:08.611Z,0
2018-12-08T01:56:18.550Z,0
2018-12-08T01:57:28.487Z,0
2018-12-08T01:58:38.191Z,0
2018-12-08T01:59:48.139Z,0
2018-12-08T02:00:57.576Z,0
2018-12-08T02:02:07.026Z,0
2018-12-08T02:03:16.973Z,0
2018-12-08T02:04:26.902Z,0
2018-12-08T02:05:36.335Z,0
2018-12-08T02:06:46.036Z,0
2018-12-08T02:07:54.967Z,0
2018-12-08T02:09:04.653Z,0
2018-12-08T02:10:14.585Z,0
2018-12-08T02:11:31.961Z,0
2018-12-08T02:12:41.659Z,0
2018-12-08T02:13:51.595Z,0
2018-12-08T02:15:01.288Z,0
2018-12-08T02:16:10.986Z,0
2018-12-08T02:17:20.657Z,0
2018-12-08T02:18:30.581Z,0
2018-12-08T02:19:40.269Z,0
2018-12-08T02:20:49.970Z,0
2018-12-08T02:21:59.899Z,0
2018-12-08T02:23:09.842Z,0
2018-12-08T02:24:19.534Z,0
2018-12-08T02:25:29.470Z,0
2018-12-08T02:26:39.407Z,0
2018-12-08T02:27:49.348Z,0
2018-12-08T02:28:59.300Z,0
2018-12-08T02:30:09.039Z,0
2018-12-08T02:31:19.015Z,0
2018-12-08T02:32:28.719Z,0
2018-12-08T02:33:38.538Z,0
2018-12-08T02:34:48.528Z,0
2018-12-08T02:35:58.241Z,0
2018-12-08T02:37:07.943Z,0
2018-12-08T02:38:17.656Z,0
2018-12-08T02:39:27.600Z,0
2018-12-08T02:40:37.045Z,0
2018-12-08T02:41:46.745Z,0
2018-12-08T02:42:56.694Z,0
2018-12-08T02:44:06.392Z,0
2018-12-08T02:45:16.341Z,0
2018-12-08T02:46:26.277Z,0
2018-12-08T02:47:36.220Z,0
2018-12-08T02:48:46.177Z,0
2018-12-08T02:49:55.626Z,0
2018-12-08T02:51:05.586Z,0
2018-12-08T02:52:15.032Z,0
2018-12-08T02:53:25.078Z,0
2018-12-08T02:54:35.028Z,0
2018-12-08T02:55:44.996Z,0
2018-12-08T02:56:54.957Z,0
2018-12-08T02:58:04.893Z,0
2018-12-08T02:59:14.833Z,0
2018-12-08T03:00:24.590Z,0
2018-12-08T03:01:34.031Z,0
2018-12-08T03:02:43.978Z,0
2018-12-08T03:03:53.928Z,0
2018-12-08T03:05:04.030Z,0
2018-12-08T03:06:13.982Z,0
2018-12-08T03:07:23.935Z,0
2018-12-08T03:08:33.977Z,0
2018-12-08T03:09:43.922Z,0
2018-12-08T03:10:53.998Z,0
2018-12-08T03:12:03.689Z,0
2018-12-08T03:13:13.384Z,0
2018-12-08T03:14:23.336Z,0
2018-12-08T03:15:33.024Z,0
2018-12-08T03:16:42.768Z,0
2018-12-08T03:17:52.253Z,0
2018-12-08T03:19:01.550Z,0
2018-12-08T03:20:11.228Z,0
2018-12-08T03:21:20.924Z,0
2018-12-08T03:22:30.865Z,0
2018-12-08T03:23:40.553Z,0
2018-12-08T03:24:50.253Z,0
2018-12-08T03:26:00.179Z,0
2018-12-08T03:27:09.879Z,0
2018-12-08T03:28:19.805Z,0
2018-12-08T03:29:29.512Z,0
2018-12-08T03:30:39.450Z,0
2018-12-08T03:31:49.424Z,0
2018-12-08T03:32:59.147Z,0
2018-12-08T03:34:08.854Z,0
2018-12-08T03:35:18.881Z,0
2018-12-08T03:36:28.833Z,0
2018-12-08T03:37:38.273Z,0
2018-12-08T03:38:47.968Z,0
2018-12-08T03:39:57.403Z,0
2018-12-08T03:41:07.345Z,0
2018-12-08T03:42:17.300Z,0
2018-12-08T03:43:27.302Z,0
2018-12-08T03:44:36.999Z,0
2018-12-08T03:45:46.952Z,0
2018-12-08T03:46:56.906Z,0
2018-12-08T03:48:06.804Z,0
2018-12-08T03:49:16.767Z,0
2018-12-08T03:50:26.713Z,0
2018-12-08T03:51:36.825Z,0
2018-12-08T03:52:46.760Z,0
2018-12-08T03:53:56.777Z,0
2018-12-08T03:55:06.716Z,0
2018-12-08T03:56:16.415Z,0
2018-12-08T03:57:26.109Z,0
2018-12-08T03:58:35.794Z,0
2018-12-08T03:59:45.831Z,0
2018-12-08T04:00:55.784Z,0
2018-12-08T04:02:05.475Z,0
2018-12-08T04:03:15.476Z,0
2018-12-08T04:04:25.429Z,0
2018-12-08T04:05:35.368Z,0
2018-12-08T04:06:45.313Z,0
2018-12-08T04:07:55.246Z,0
2018-12-08T04:09:04.957Z,0
2018-12-08T04:10:14.900Z,0
2018-12-08T04:11:24.619Z,0
2018-12-08T04:12:34.583Z,0
2018-12-08T04:13:44.081Z,0
2018-12-08T04:14:54.043Z,0
2018-12-08T04:16:03.990Z,0
2018-12-08T04:17:13.934Z,0
2018-12-08T04:18:23.567Z,0
2018-12-08T04:19:33.506Z,0
2018-12-08T04:20:43.437Z,0
2018-12-08T04:21:53.377Z,0
2018-12-08T04:23:03.311Z,0
2018-12-08T04:24:13.006Z,0
2018-12-08T04:25:22.710Z,0
2018-12-08T04:26:32.405Z,0
2018-12-08T04:27:42.350Z,0
2018-12-08T04:28:52.055Z,0
2018-12-08T04:30:01.999Z,0
2018-12-08T04:31:11.939Z,0
2018-12-08T04:32:21.639Z,0
2018-12-08T04:33:31.401Z,0
2018-12-08T04:34:41.354Z,0
2018-12-08T04:35:51.034Z,0
2018-12-08T04:37:02.396Z,0
2018-12-08T04:38:11.842Z,0
2018-12-08T04:39:21.886Z,0
2018-12-08T04:40:31.842Z,0
2018-12-08T04:41:41.664Z,0
2018-12-08T04:42:51.601Z,0
2018-12-08T04:44:01.542Z,0
2018-12-08T04:45:11.491Z,0
2018-12-08T04:46:21.292Z,0
2018-12-08T04:47:31.000Z,0
2018-12-08T04:48:43.004Z,0
2018-12-08T04:49:52.950Z,0
2018-12-08T04:51:02.637Z,0
2018-12-08T04:52:12.578Z,0
2018-12-08T04:53:22.526Z,0
2018-12-08T04:54:32.454Z,0
2018-12-08T04:55:42.390Z,0
2018-12-08T04:56:52.333Z,0
2018-12-08T04:58:02.274Z,0
2018-12-08T04:59:12.210Z,0
2018-12-08T05:00:21.904Z,0
2018-12-08T05:01:31.838Z,0
2018-12-08T05:02:41.536Z,0
2018-12-08T05:03:50.729Z,0
2018-12-08T05:05:00.177Z,0
2018-12-08T05:06:10.243Z,0
2018-12-08T05:07:19.690Z,0
2018-12-08T05:08:29.624Z,0
2018-12-08T05:09:39.626Z,0
2018-12-08T05:10:49.324Z,0
2018-12-08T05:11:59.005Z,0
2018-12-08T05:13:08.688Z,0
2018-12-08T05:14:18.640Z,0
2018-12-08T05:15:28.320Z,0
2018-12-08T05:16:38.006Z,0
2018-12-08T05:17:47.951Z,0
2018-12-08T05:18:57.890Z,0
2018-12-08T05:20:07.586Z,0
2018-12-08T05:21:17.526Z,0
2018-12-08T05:22:27.468Z,0
2018-12-08T05:23:37.155Z,0
2018-12-08T05:24:47.084Z,0
2018-12-08T05:25:57.010Z,0
2018-12-08T05:27:06.936Z,0
2018-12-08T05:28:16.623Z,0
2018-12-08T05:29:26.060Z,0
2018-12-08T05:30:35.996Z,0
2018-12-08T05:31:45.690Z,0
2018-12-08T05:32:55.630Z,0
2018-12-08T05:34:05.317Z,0
2018-12-08T05:35:15.008Z,0
2018-12-08T05:36:24.951Z,0
2018-12-08T05:37:34.646Z,0
2018-12-08T05:38:44.072Z,0
2018-12-08T05:39:53.765Z,0
2018-12-08T05:41:03.711Z,0
2018-12-08T05:42:13.402Z,0
2018-12-08T05:43:23.345Z,0
2018-12-08T05:44:33.281Z,0
2018-12-08T05:45:42.707Z,0
2018-12-08T05:46:52.151Z,0
2018-12-08T05:48:02.097Z,0
2018-12-08T05:49:12.032Z,0
2018-12-08T05:50:21.987Z,0
2018-12-08T05:51:31.906Z,0
2018-12-08T05:52:41.902Z,0
2018-12-08T05:53:51.601Z,0
2018-12-08T05:55:01.551Z,0
2018-12-08T05:56:10.989Z,0
2018-12-08T05:57:20.415Z,0
2018-12-08T05:58:30.103Z,0
2018-12-08T05:59:39.538Z,0
2018-12-08T06:00:49.471Z,0
2018-12-08T06:01:59.161Z,0
2018-12-08T06:03:09.091Z,0
2018-12-08T06:04:18.778Z,0
2018-12-08T06:05:28.721Z,0
2018-12-08T06:06:38.668Z,0
2018-12-08T06:07:48.355Z,0
2018-12-08T06:08:58.299Z,0
2018-12-08T06:10:08.007Z,0
2018-12-08T06:11:17.959Z,0
2018-12-08T06:12:27.899Z,0
2018-12-08T06:13:37.825Z,0
2018-12-08T06:14:47.405Z,0
2018-12-08T06:15:57.336Z,0
2018-12-08T06:17:07.028Z,0
2018-12-08T06:18:16.228Z,0
2018-12-08T06:19:26.174Z,0
2018-12-08T06:20:36.120Z,0
2018-12-08T06:21:46.172Z,0
2018-12-08T06:22:55.860Z,0
2018-12-08T06:24:05.817Z,0
2018-12-08T06:25:15.775Z,4
2018-12-08T06:26:25.475Z,4
2018-12-08T06:27:35.418Z,4
2018-12-08T06:28:46.156Z,4
2018-12-08T06:29:56.096Z,8
2018-12-08T06:31:06.023Z,8
2018-12-08T06:32:15.825Z,12
2018-12-08T06:33:25.750Z,16
2018-12-08T06:34:35.694Z,20
2018-12-08T06:35:45.622Z,24
2018-12-08T06:36:55.558Z,24
2018-12-08T06:38:05.248Z,32
2018-12-08T06:39:15.219Z,40
2018-12-08T06:40:31.682Z,44
2018-12-08T06:41:41.396Z,56
2018-12-08T06:42:51.344Z,64
2018-12-08T06:44:01.278Z,76
2018-12-08T06:45:12.894Z,88
2018-12-08T06:46:22.839Z,104
2018-12-08T06:47:32.528Z,120
2018-12-08T06:48:41.962Z,136
2018-12-08T06:49:51.900Z,156
2018-12-08T06:51:01.839Z,172
2018-12-08T06:52:11.774Z,200
2018-12-08T06:53:21.466Z,228
2018-12-08T06:54:31.418Z,256
2018-12-08T06:55:41.355Z,280
2018-12-08T06:56:51.286Z,304
2018-12-08T06:58:01.083Z,336
2018-12-08T06:59:11.018Z,368
2018-12-08T07:00:20.954Z,408
2018-12-08T07:01:30.741Z,464
2018-12-08T07:02:40.517Z,496
2018-12-08T07:03:50.224Z,536
2018-12-08T07:05:00.153Z,592
2018-12-08T07:06:10.105Z,648
2018-12-08T07:07:20.060Z,700
2018-12-08T07:08:29.762Z,752
2018-12-08T07:09:39.684Z,808
2018-12-08T07:10:49.638Z,860
2018-12-08T07:11:59.330Z,912
2018-12-08T07:13:09.011Z,960
2018-12-08T07:14:18.550Z,1044
2018-12-08T07:15:28.549Z,1116
2018-12-08T07:16:38.235Z,1176
2018-12-08T07:17:48.175Z,1160
2018-12-08T07:18:58.224Z,1180
2018-12-08T07:20:08.174Z,1236
2018-12-08T07:21:18.133Z,1276
2018-12-08T07:22:28.072Z,1352
2018-12-08T07:23:37.759Z,1584
2018-12-08T07:24:47.698Z,1916
2018-12-08T07:25:57.641Z,2200
2018-12-08T07:27:07.604Z,2492
2018-12-08T07:28:17.560Z,2756
2018-12-08T07:29:28.713Z,2980
2018-12-08T07:30:38.654Z,3148
2018-12-08T07:31:48.701Z,3268
2018-12-08T07:32:58.393Z,3324
2018-12-08T07:34:08.340Z,3308
2018-12-08T07:35:18.034Z,3268
2018-12-08T07:36:27.974Z,3240
2018-12-08T07:37:37.911Z,3220
2018-12-08T07:38:47.352Z,3196
2018-12-08T07:39:57.637Z,3284
2018-12-08T07:41:07.667Z,3368
2018-12-08T07:42:17.468Z,3364
2018-12-08T07:43:26.934Z,3264
2018-12-08T07:44:36.885Z,3168
2018-12-08T07:45:46.919Z,3116
2018-12-08T07:46:56.864Z,3148
2018-12-08T07:48:06.558Z,2820
2018-12-08T07:49:16.259Z,2616
2018-12-08T07:50:25.704Z,2428
2018-12-08T07:51:35.480Z,2276
2018-12-08T07:52:45.432Z,2272
2018-12-08T07:53:54.947Z,2312
2018-12-08T07:55:04.885Z,2460
2018-12-08T07:56:14.578Z,2672
2018-12-08T07:57:24.538Z,2796
2018-12-08T07:58:34.496Z,2664
2018-12-08T07:59:44.440Z,2616
2018-12-08T08:00:54.210Z,2576
2018-12-08T08:02:04.177Z,2696
2018-12-08T08:03:13.622Z,2916
2018-12-08T08:04:23.307Z,3196
2018-12-08T08:05:33.270Z,3352
2018-12-08T08:06:43.216Z,3704
2018-12-08T08:07:53.174Z,4088
2018-12-08T08:09:02.873Z,4736
2018-12-08T08:10:12.576Z,5216
2018-12-08T08:11:22.353Z,5672
2018-12-08T08:12:32.043Z,5848
2018-12-08T08:13:41.986Z,6508
2018-12-08T08:14:51.684Z,7752
2018-12-08T08:16:01.373Z,8708
2018-12-08T08:17:11.333Z,9236
2018-12-08T08:18:21.293Z,9408
2018-12-08T08:19:31.001Z,8712
2018-12-08T08:20:40.934Z,8608
2018-12-08T08:21:50.875Z,8168
2018-12-08T08:23:00.582Z,7916
2018-12-08T08:24:10.522Z,7636
2018-12-08T08:25:20.199Z,7100
2018-12-08T08:26:30.131Z,5680
2018-12-08T08:27:40.086Z,5192
2018-12-08T08:28:49.516Z,4232
2018-12-08T08:29:59.203Z,3144
2018-12-08T08:31:09.132Z,2884
2018-12-08T08:32:18.836Z,2616
2018-12-08T08:33:28.777Z,2636
2018-12-08T08:34:38.773Z,2904
2018-12-08T08:35:48.716Z,3216
2018-12-08T08:36:58.657Z,3692
2018-12-08T08:38:08.595Z,4512
2018-12-08T08:39:18.040Z,5252
2018-12-08T08:40:27.992Z,5552
2018-12-08T08:41:37.934Z,5608
2018-12-08T08:42:47.372Z,5244
2018-12-08T08:43:58.693Z,4688
2018-12-08T08:45:08.404Z,4436
2018-12-08T08:46:18.367Z,4636
2018-12-08T08:47:28.065Z,4984
2018-12-08T08:48:38.019Z,5512
2018-12-08T08:49:47.962Z,6096
2018-12-08T08:50:57.894Z,6664
2018-12-08T08:52:07.578Z,7196
2018-12-08T08:53:17.274Z,7756
2018-12-08T08:54:27.234Z,8412
2018-12-08T08:55:37.208Z,8836
2018-12-08T08:56:46.893Z,9472
2018-12-08T08:57:56.416Z,10400
2018-12-08T08:59:06.371Z,10544
2018-12-08T09:00:16.307Z,9868
2018-12-08T09:01:26.001Z,10272
2018-12-08T09:02:35.935Z,11184
2018-12-08T09:03:45.868Z,12084
2018-12-08T09:04:55.573Z,11484
2018-12-08T09:06:05.278Z,9476
2018-12-08T09:07:14.982Z,7820
2018-12-08T09:08:24.942Z,7464
2018-12-08T09:09:34.884Z,7236
2018-12-08T09:10:44.898Z,7016
2018-12-08T09:11:54.851Z,6812
2018-12-08T09:13:04.781Z,6756
2018-12-08T09:14:20.435Z,6788
2018-12-08T09:15:29.865Z,6276
2018-12-08T09:16:39.817Z,5872
2018-12-08T09:17:49.773Z,6028
2018-12-08T09:18:59.782Z,5872
2018-12-08T09:20:09.726Z,5452
2018-12-08T09:21:19.433Z,6368
2018-12-08T09:22:29.366Z,7224
2018-12-08T09:23:39.053Z,7632
2018-12-08T09:24:48.748Z,8352
2018-12-08T09:25:58.708Z,9256
2018-12-08T09:27:08.153Z,9880
2018-12-08T09:28:18.115Z,11564
2018-12-08T09:29:27.811Z,21408
2018-12-08T09:30:37.501Z,15420
2018-12-08T09:31:47.217Z,12388
2018-12-08T09:32:57.159Z,11852
2018-12-08T09:34:07.225Z,13796
2018-12-08T09:35:16.911Z,24512
2018-12-08T09:36:26.844Z,24480
2018-12-08T09:37:36.527Z,14972
2018-12-08T09:38:46.471Z,14292
2018-12-08T09:39:57.144Z,14876
2018-12-08T09:41:07.218Z,34720
2018-12-08T09:42:17.158Z,24480
2018-12-08T09:43:26.840Z,22176
2018-12-08T09:44:36.301Z,15064
2018-12-08T09:45:49.181Z,14472
2018-12-08T09:46:58.619Z,17824
2018-12-08T09:48:08.131Z,11632
2018-12-08T09:49:17.835Z,8212
2018-12-08T09:50:27.537Z,7604
2018-12-08T09:51:37.487Z,8492
2018-12-08T09:52:47.184Z,8224
2018-12-08T09:53:56.961Z,7884
2018-12-08T09:55:06.674Z,11544
2018-12-08T09:56:16.639Z,14200
2018-12-08T09:57:26.588Z,16992
2018-12-08T09:58:36.542Z,21664
2018-12-08T09:59:46.495Z,46912
2018-12-08T10:00:56.674Z,56416
2018-12-08T10:02:06.357Z,60224
2018-12-08T10:03:16.446Z,38912
2018-12-08T10:04:26.385Z,39296
2018-12-08T10:05:36.328Z,59808
2018-12-08T10:06:46.038Z,24576
2018-12-08T10:07:55.982Z,16768
2018-12-08T10:09:05.694Z,12840
2018-12-08T10:10:15.401Z,10468
2018-12-08T10:11:25.354Z,9672
2018-12-08T10:12:35.299Z,9508
2018-12-08T10:13:45.252Z,10684
2018-12-08T10:14:54.938Z,13236
2018-12-08T10:16:04.631Z,12008
2018-12-08T10:17:14.081Z,21280
2018-12-08T10:18:24.027Z,13188
2018-12-08T10:19:33.988Z,18880
2018-12-08T10:20:43.938Z,19360
2018-12-08T10:21:53.629Z,17472
2018-12-08T10:23:03.588Z,38464
2018-12-08T10:24:13.519Z,14180
2018-12-08T10:25:23.464Z,8652
2018-12-08T10:26:33.411Z,8704
2018-12-08T10:27:45.136Z,10788
2018-12-08T10:28:54.572Z,8780
2018-12-08T10:30:04.258Z,7624
2018-12-08T10:31:13.958Z,6860
2018-12-08T10:32:23.912Z,6976
2018-12-08T10:33:35.225Z,6016
2018-12-08T10:34:44.918Z,5636
2018-12-08T10:35:54.879Z,6172
2018-12-08T10:37:04.826Z,7172
2018-12-08T10:38:14.763Z,6328
2018-12-08T10:39:24.206Z,7500
2018-12-08T10:40:33.661Z,7500
2018-12-08T10:41:43.607Z,6920
2018-12-08T10:42:53.060Z,7524
2018-12-08T10:44:02.753Z,7476
2018-12-08T10:45:12.193Z,6068
2018-12-08T10:46:22.123Z,6996
2018-12-08T10:47:32.065Z,8572
2018-12-08T10:48:41.509Z,10336
2018-12-08T10:49:50.820Z,11076
2018-12-08T10:51:00.766Z,9472
2018-12-08T10:52:10.711Z,8088
2018-12-08T10:53:20.664Z,7656
2018-12-08T10:54:31.844Z,7824
2018-12-08T10:55:41.795Z,9112
2018-12-08T10:56:51.748Z,10056
2018-12-08T10:58:01.691Z,8880
2018-12-08T10:59:11.627Z,7408
2018-12-08T11:00:21.599Z,6980
2018-12-08T11:01:31.309Z,6272
2018-12-08T11:02:40.754Z,5240
2018-12-08T11:03:50.201Z,4216
2018-12-08T11:04:59.900Z,4180
2018-12-08T11:06:09.601Z,3948
2018-12-08T11:07:19.299Z,3952
2018-12-08T11:08:29.244Z,3956
2018-12-08T11:09:39.199Z,3968
2018-12-08T11:10:49.143Z,4060
2018-12-08T11:11:58.859Z,3704
2018-12-08T11:13:08.556Z,3456
2018-12-08T11:14:18.507Z,3084
2018-12-08T11:15:27.960Z,3744
2018-12-08T11:16:37.150Z,3888
2018-12-08T11:17:46.863Z,3928
2018-12-08T11:18:56.810Z,4116
2018-12-08T11:20:06.868Z,5040
2018-12-08T11:21:16.930Z,5760
2018-12-08T11:22:26.910Z,5624
2018-12-08T11:23:38.388Z,6464
2018-12-08T11:24:48.453Z,7112
2018-12-08T11:25:58.141Z,7140
2018-12-08T11:27:07.330Z,6936
2018-12-08T11:28:17.273Z,7184
2018-12-08T11:29:27.223Z,7860
2018-12-08T11:30:38.621Z,7404
2018-12-08T11:31:48.404Z,7072
2018-12-08T11:32:58.365Z,7200
2018-12-08T11:34:08.069Z,8472
2018-12-08T11:35:18.013Z,9940
2018-12-08T11:36:27.968Z,9384
2018-12-08T11:37:37.911Z,8296
2018-12-08T11:38:47.856Z,7824
2018-12-08T11:39:57.805Z,7384
2018-12-08T11:41:07.772Z,7208
2018-12-08T11:42:17.721Z,8928
2018-12-08T11:43:28.383Z,10016
2018-12-08T11:44:38.334Z,13396
2018-12-08T11:45:48.277Z,17504
2018-12-08T11:46:57.964Z,21856
2018-12-08T11:48:07.670Z,19584
2018-12-08T11:49:16.873Z,17088
2018-12-08T11:50:26.812Z,15704
2018-12-08T11:51:36.523Z,16316
2018-12-08T11:52:46.229Z,12460
2018-12-08T11:53:55.923Z,10636
2018-12-08T11:55:05.889Z,9716
2018-12-08T11:56:15.846Z,10060
2018-12-08T11:57:25.794Z,10216
2018-12-08T11:58:35.491Z,9480
2018-12-08T11:59:45.441Z,8644
2018-12-08T12:00:55.383Z,7568
2018-12-08T12:02:05.083Z,9256
2018-12-08T12:03:15.019Z,10376
2018-12-08T12:04:24.716Z,11188
2018-12-08T12:05:34.656Z,12312
2018-12-08T12:06:44.354Z,10540
2018-12-08T12:07:54.300Z,7372
2018-12-08T12:09:03.987Z,5404
2018-12-08T12:10:13.552Z,4812
2018-12-08T12:11:23.501Z,5648
2018-12-08T12:12:33.452Z,6184
2018-12-08T12:13:43.139Z,6240
2018-12-08T12:14:52.828Z,5916
2018-12-08T12:16:02.765Z,6352
2018-12-08T12:17:12.807Z,6520
2018-12-08T12:18:22.736Z,5780
2018-12-08T12:19:32.435Z,5824
2018-12-08T12:20:42.400Z,5484
2018-12-08T12:21:52.092Z,5260
2018-12-08T12:23:01.799Z,6136
2018-12-08T12:24:11.761Z,6488
2018-12-08T12:25:21.707Z,7512
2018-12-08T12:26:31.209Z,7860
2018-12-08T12:27:41.156Z,7524
2018-12-08T12:28:50.839Z,8212
2018-12-08T12:30:00.788Z,8752
2018-12-08T12:31:10.721Z,8748
2018-12-08T12:32:20.410Z,9644
2018-12-08T12:33:30.347Z,10376
2018-12-08T12:34:40.288Z,9616
2018-12-08T12:35:49.985Z,9700
2018-12-08T12:36:59.930Z,9508
2018-12-08T12:38:09.411Z,8124
2018-12-08T12:39:19.103Z,7360
2018-12-08T12:40:28.811Z,6652
2018-12-08T12:41:38.826Z,6576
2018-12-08T12:42:48.526Z,6236
2018-12-08T12:43:58.476Z,5632
2018-12-08T12:45:08.437Z,4940
2018-12-08T12:46:18.127Z,4392
2018-12-08T12:47:28.067Z,4272
2018-12-08T12:48:38.028Z,4140
2018-12-08T12:49:47.738Z,3912
2018-12-08T12:50:57.437Z,3556
2018-12-08T12:52:07.148Z,3404
2018-12-08T12:53:17.700Z,3392
2018-12-08T12:54:27.645Z,3524
2018-12-08T12:55:37.574Z,3616
2018-12-08T12:56:47.272Z,3600
2018-12-08T12:57:57.209Z,3064
2018-12-08T12:59:07.159Z,2332
2018-12-08T13:00:17.096Z,2344
2018-12-08T13:01:27.042Z,2436
2018-12-08T13:02:36.982Z,2900
2018-12-08T13:03:46.941Z,3064
2018-12-08T13:04:56.879Z,3096
2018-12-08T13:06:06.578Z,2888
2018-12-08T13:07:16.274Z,2848
2018-12-08T13:08:25.972Z,2496
2018-12-08T13:09:35.674Z,2116
2018-12-08T13:10:45.381Z,2324
2018-12-08T13:11:55.350Z,2296
2018-12-08T13:13:04.790Z,2328
2018-12-08T13:14:15.755Z,2308
2018-12-08T13:15:25.705Z,2164
2018-12-08T13:16:35.399Z,2132
2018-12-08T13:17:45.346Z,2052
2018-12-08T13:18:55.049Z,1720
2018-12-08T13:20:05.008Z,1700
2018-12-08T13:21:14.489Z,1700
2018-12-08T13:22:24.442Z,1868
2018-12-08T13:23:34.399Z,2164
2018-12-08T13:24:44.338Z,2896
2018-12-08T13:25:54.117Z,3392
2018-12-08T13:27:04.167Z,2900
2018-12-08T13:28:13.867Z,2656
2018-12-08T13:29:23.550Z,2484
2018-12-08T13:30:35.301Z,2536
2018-12-08T13:31:45.274Z,2156
2018-12-08T13:32:54.973Z,2260
2018-12-08T13:34:04.928Z,2304
2018-12-08T13:35:14.884Z,2324
2018-12-08T13:36:24.578Z,2260
2018-12-08T13:37:34.524Z,2328
2018-12-08T13:38:44.233Z,2284
2018-12-08T13:39:54.171Z,2072
2018-12-08T13:41:04.107Z,1788
2018-12-08T13:42:13.553Z,1476
2018-12-08T13:43:23.486Z,1280
2018-12-08T13:44:33.469Z,1228
2018-12-08T13:45:43.427Z,1112
2018-12-08T13:46:53.130Z,1164
2018-12-08T13:48:02.587Z,1076
2018-12-08T13:49:12.535Z,1080
2018-12-08T13:50:22.484Z,1044
2018-12-08T13:51:32.188Z,972
2018-12-08T13:52:41.631Z,860
2018-12-08T13:53:51.075Z,828
2018-12-08T13:55:01.062Z,772
2018-12-08T13:56:11.099Z,584
2018-12-08T13:57:20.793Z,360
2018-12-08T13:58:30.502Z,308
2018-12-08T13:59:40.196Z,328
2018-12-08T14:00:50.142Z,376
2018-12-08T14:02:00.079Z,416
2018-12-08T14:03:10.015Z,520
2018-12-08T14:04:19.983Z,580
2018-12-08T14:05:29.935Z,732
2018-12-08T14:06:39.896Z,724
2018-12-08T14:07:49.850Z,856
2018-12-08T14:08:59.781Z,1012
2018-12-08T14:10:09.476Z,1028
2018-12-08T14:11:19.420Z,920
2018-12-08T14:12:29.355Z,800
2018-12-08T14:13:39.358Z,712
2018-12-08T14:14:49.063Z,696
2018-12-08T14:15:58.751Z,744
2018-12-08T14:17:08.694Z,792
2018-12-08T14:18:18.724Z,856
2018-12-08T14:19:28.684Z,772
2018-12-08T14:20:38.161Z,684
2018-12-08T14:21:48.114Z,604
2018-12-08T14:22:58.059Z,616
2018-12-08T14:24:08.020Z,588
2018-12-08T14:25:17.730Z,620
2018-12-08T14:26:27.440Z,628
2018-12-08T14:27:36.876Z,612
2018-12-08T14:28:46.823Z,620
2018-12-08T14:29:56.278Z,604
2018-12-08T14:31:05.966Z,544
2018-12-08T14:32:15.900Z,500
2018-12-08T14:33:25.875Z,440
2018-12-08T14:34:35.820Z,372
2018-12-08T14:35:45.275Z,348
2018-12-08T14:36:55.217Z,348
2018-12-08T14:38:04.971Z,332
2018-12-08T14:39:14.663Z,340
2018-12-08T14:40:24.108Z,332
2018-12-08T14:41:34.070Z,296
2018-12-08T14:42:43.765Z,264
2018-12-08T14:43:53.440Z,232
2018-12-08T14:45:03.397Z,228
2018-12-08T14:46:13.359Z,236
2018-12-08T14:47:23.050Z,252
2018-12-08T14:48:32.998Z,276
2018-12-08T14:49:42.693Z,300
2018-12-08T14:50:52.649Z,284
2018-12-08T14:52:02.580Z,264
2018-12-08T14:53:12.273Z,220
2018-12-08T14:54:22.310Z,188
2018-12-08T14:55:32.251Z,172
2018-12-08T14:56:42.187Z,152
2018-12-08T14:57:52.184Z,128
2018-12-08T14:59:02.119Z,120
2018-12-08T15:00:11.904Z,104
2018-12-08T15:01:21.597Z,88
2018-12-08T15:02:31.540Z,76
2018-12-08T15:03:41.483Z,68
2018-12-08T15:04:50.935Z,64
2018-12-08T15:06:00.873Z,56
2018-12-08T15:07:10.629Z,52
2018-12-08T15:08:20.585Z,48
2018-12-08T15:09:30.294Z,44
2018-12-08T15:10:39.747Z,36
2018-12-08T15:11:49.675Z,32
2018-12-08T15:12:59.628Z,28
2018-12-08T15:14:09.664Z,20
2018-12-08T15:15:19.358Z,16
2018-12-08T15:16:29.051Z,16
2018-12-08T15:17:38.999Z,12
2018-12-08T15:18:48.705Z,12
2018-12-08T15:19:58.635Z,12
2018-12-08T15:21:08.332Z,8
2018-12-08T15:22:18.278Z,8
2018-12-08T15:23:28.222Z,4
2018-12-08T15:24:38.168Z,4
2018-12-08T15:25:48.126Z,8
2018-12-08T15:26:58.060Z,4
2018-12-08T15:28:07.766Z,4
2018-12-08T15:29:17.495Z,0
2018-12-08T15:30:27.184Z,4
2018-12-08T15:31:37.132Z,0
2018-12-08T15:32:47.075Z,0
2018-12-08T15:33:56.829Z,0
2018-12-08T15:35:06.802Z,0
2018-12-08T15:36:16.498Z,0
2018-12-08T15:37:26.438Z,0
2018-12-08T15:38:36.392Z,0
2018-12-08T15:39:46.339Z,0
2018-12-08T15:40:56.310Z,0
2018-12-08T15:42:05.834Z,0
2018-12-08T15:43:15.792Z,0
2018-12-08T15:44:25.742Z,0
2018-12-08T15:45:35.444Z,0
2018-12-08T15:46:45.395Z,0
2018-12-08T15:47:55.125Z,0
2018-12-08T15:49:04.820Z,0
2018-12-08T15:50:14.822Z,0
2018-12-08T15:51:24.767Z,0
2018-12-08T15:52:34.705Z,0
2018-12-08T15:53:44.661Z,0
2018-12-08T15:54:53.874Z,0
2018-12-08T15:56:03.807Z,0
2018-12-08T15:57:15.667Z,0
2018-12-08T15:58:25.699Z,0
2018-12-08T15:59:35.391Z,0
2018-12-08T16:00:45.340Z,0
2018-12-08T16:01:55.029Z,0
2018-12-08T16:03:04.747Z,0
2018-12-08T16:04:14.686Z,0
2018-12-08T16:05:24.642Z,0
2018-12-08T16:06:34.583Z,0
2018-12-08T16:07:44.542Z,0
2018-12-08T16:08:53.996Z,0
2018-12-08T16:10:03.683Z,0
2018-12-08T16:11:13.625Z,0
2018-12-08T16:12:23.588Z,0
2018-12-08T16:13:33.273Z,0
2018-12-08T16:14:42.961Z,0
2018-12-08T16:15:52.495Z,0
2018-12-08T16:17:02.203Z,0
2018-12-08T16:18:12.153Z,0